sensor_id;sensor_type;location;lat;lon;timestamp;P1;durP1;ratioP1;P2;durP2;ratioP2
37051;SDS011;22964;52.272;13.356;2023-02-03T00:00:10;8.75;;;3.35;;
37051;SDS011;22964;52.272;13.356;2023-02-03T00:02:40;7.68;;;2.47;;
37051;SDS011;22964;52.272;13.356;2023-02-03T00:05:06;8.15;;;2.50;;
37051;SDS011;22964;52.272;13.356;2023-02-03T00:07:32;9.75;;;3.00;;
37051;SDS011;22964;52.272;13.356;2023-02-03T00:10:00;10.43;;;2.95;;
37051;SDS011;22964;52.272;13.356;2023-02-03T00:12:26;9.07;;;2.75;;
37051;SDS011;22964;52.272;13.356;2023-02-03T00:14:53;6.85;;;2.80;;
37051;SDS011;22964;52.272;13.356;2023-02-03T00:17:18;10.15;;;3.10;;
37051;SDS011;22964;52.272;13.356;2023-02-03T00:19:44;7.97;;;3.08;;
37051;SDS011;22964;52.272;13.356;2023-02-03T00:22:10;7.97;;;3.05;;
37051;SDS011;22964;52.272;13.356;2023-02-03T00:24:35;9.70;;;3.33;;
37051;SDS011;22964;52.272;13.356;2023-02-03T00:27:01;12.90;;;3.05;;
37051;SDS011;22964;52.272;13.356;2023-02-03T00:29:27;7.50;;;2.90;;
37051;SDS011;22964;52.272;13.356;2023-02-03T00:31:52;13.07;;;3.25;;
37051;SDS011;22964;52.272;13.356;2023-02-03T00:34:20;11.02;;;3.45;;
37051;SDS011;22964;52.272;13.356;2023-02-03T00:36:46;8.02;;;2.83;;
37051;SDS011;22964;52.272;13.356;2023-02-03T00:39:13;9.27;;;2.88;;
37051;SDS011;22964;52.272;13.356;2023-02-03T00:41:39;7.72;;;3.03;;
37051;SDS011;22964;52.272;13.356;2023-02-03T00:44:06;7.82;;;3.28;;
37051;SDS011;22964;52.272;13.356;2023-02-03T00:46:33;11.65;;;3.03;;
37051;SDS011;22964;52.272;13.356;2023-02-03T00:49:01;8.57;;;2.80;;
37051;SDS011;22964;52.272;13.356;2023-02-03T00:51:28;10.07;;;2.90;;
37051;SDS011;22964;52.272;13.356;2023-02-03T00:53:53;6.45;;;2.97;;
37051;SDS011;22964;52.272;13.356;2023-02-03T00:56:19;8.68;;;3.20;;
37051;SDS011;22964;52.272;13.356;2023-02-03T00:58:45;8.48;;;3.05;;
37051;SDS011;22964;52.272;13.356;2023-02-03T01:01:10;10.38;;;2.90;;
37051;SDS011;22964;52.272;13.356;2023-02-03T01:03:36;10.68;;;3.03;;
37051;SDS011;22964;52.272;13.356;2023-02-03T01:08:39;8.10;;;3.15;;
37051;SDS011;22964;52.272;13.356;2023-02-03T01:11:09;8.77;;;2.85;;
37051;SDS011;22964;52.272;13.356;2023-02-03T01:13:37;8.90;;;3.30;;
37051;SDS011;22964;52.272;13.356;2023-02-03T01:16:07;9.23;;;3.40;;
37051;SDS011;22964;52.272;13.356;2023-02-03T01:18:37;9.45;;;3.40;;
37051;SDS011;22964;52.272;13.356;2023-02-03T01:21:07;8.98;;;3.53;;
37051;SDS011;22964;52.272;13.356;2023-02-03T01:23:35;5.22;;;2.80;;
37051;SDS011;22964;52.272;13.356;2023-02-03T01:26:02;9.18;;;3.10;;
37051;SDS011;22964;52.272;13.356;2023-02-03T01:28:29;6.47;;;2.70;;
37051;SDS011;22964;52.272;13.356;2023-02-03T01:30:54;7.30;;;3.20;;
37051;SDS011;22964;52.272;13.356;2023-02-03T01:33:20;8.20;;;3.85;;
37051;SDS011;22964;52.272;13.356;2023-02-03T01:35:47;7.15;;;3.10;;
37051;SDS011;22964;52.272;13.356;2023-02-03T01:38:13;6.30;;;3.30;;
37051;SDS011;22964;52.272;13.356;2023-02-03T01:40:42;5.68;;;2.80;;
37051;SDS011;22964;52.272;13.356;2023-02-03T01:43:26;5.70;;;2.75;;
37051;SDS011;22964;52.272;13.356;2023-02-03T01:46:01;5.57;;;2.65;;
37051;SDS011;22964;52.272;13.356;2023-02-03T01:48:42;5.85;;;2.55;;
37051;SDS011;22964;52.272;13.356;2023-02-03T01:51:08;5.68;;;2.50;;
37051;SDS011;22964;52.272;13.356;2023-02-03T01:53:34;7.38;;;2.53;;
37051;SDS011;22964;52.272;13.356;2023-02-03T01:56:01;5.93;;;2.30;;
37051;SDS011;22964;52.272;13.356;2023-02-03T01:58:30;3.95;;;2.40;;
37051;SDS011;22964;52.272;13.356;2023-02-03T02:00:58;3.47;;;2.10;;
37051;SDS011;22964;52.272;13.356;2023-02-03T02:03:24;4.35;;;2.20;;
37051;SDS011;22964;52.272;13.356;2023-02-03T02:08:30;3.50;;;1.90;;
37051;SDS011;22964;52.272;13.356;2023-02-03T02:11:00;4.03;;;1.80;;
37051;SDS011;22964;52.272;13.356;2023-02-03T02:13:27;3.83;;;1.90;;
37051;SDS011;22964;52.272;13.356;2023-02-03T02:21:44;4.65;;;1.80;;
37051;SDS011;22964;52.272;13.356;2023-02-03T02:24:42;4.28;;;2.20;;
37051;SDS011;22964;52.272;13.356;2023-02-03T02:35:57;2.53;;;1.35;;
37051;SDS011;22964;52.272;13.356;2023-02-03T02:38:52;2.25;;;1.40;;
37051;SDS011;22964;52.272;13.356;2023-02-03T02:41:42;1.73;;;1.20;;
37051;SDS011;22964;52.272;13.356;2023-02-03T02:44:13;2.40;;;1.30;;
37051;SDS011;22964;52.272;13.356;2023-02-03T02:46:53;3.50;;;1.45;;
37051;SDS011;22964;52.272;13.356;2023-02-03T02:49:36;1.42;;;1.05;;
37051;SDS011;22964;52.272;13.356;2023-02-03T02:52:09;2.97;;;1.15;;
37051;SDS011;22964;52.272;13.356;2023-02-03T02:54:40;1.35;;;1.00;;
37051;SDS011;22964;52.272;13.356;2023-02-03T02:57:11;2.97;;;1.20;;
37051;SDS011;22964;52.272;13.356;2023-02-03T02:59:40;1.27;;;1.00;;
37051;SDS011;22964;52.272;13.356;2023-02-03T03:02:07;1.58;;;1.20;;
37051;SDS011;22964;52.272;13.356;2023-02-03T03:04:34;2.38;;;1.38;;
37051;SDS011;22964;52.272;13.356;2023-02-03T03:07:04;1.80;;;1.10;;
37051;SDS011;22964;52.272;13.356;2023-02-03T03:09:37;1.92;;;1.35;;
37051;SDS011;22964;52.272;13.356;2023-02-03T03:14:35;1.65;;;1.15;;
37051;SDS011;22964;52.272;13.356;2023-02-03T03:17:08;1.77;;;1.20;;
37051;SDS011;22964;52.272;13.356;2023-02-03T03:19:38;1.70;;;1.10;;
37051;SDS011;22964;52.272;13.356;2023-02-03T03:22:09;2.67;;;1.20;;
37051;SDS011;22964;52.272;13.356;2023-02-03T03:24:44;1.38;;;1.13;;
37051;SDS011;22964;52.272;13.356;2023-02-03T03:27:21;1.70;;;1.30;;
37051;SDS011;22964;52.272;13.356;2023-02-03T03:29:59;1.95;;;1.35;;
37051;SDS011;22964;52.272;13.356;2023-02-03T03:32:29;1.65;;;1.13;;
37051;SDS011;22964;52.272;13.356;2023-02-03T03:34:57;1.95;;;1.20;;
37051;SDS011;22964;52.272;13.356;2023-02-03T03:39:57;1.63;;;1.10;;
37051;SDS011;22964;52.272;13.356;2023-02-03T03:42:30;1.48;;;1.20;;
37051;SDS011;22964;52.272;13.356;2023-02-03T03:45:08;2.13;;;1.30;;
37051;SDS011;22964;52.272;13.356;2023-02-03T03:47:49;1.55;;;1.20;;
37051;SDS011;22964;52.272;13.356;2023-02-03T03:50:32;2.30;;;1.27;;
37051;SDS011;22964;52.272;13.356;2023-02-03T03:53:02;2.00;;;1.48;;
37051;SDS011;22964;52.272;13.356;2023-02-03T03:55:30;2.38;;;1.50;;
37051;SDS011;22964;52.272;13.356;2023-02-03T03:58:00;2.78;;;1.50;;
37051;SDS011;22964;52.272;13.356;2023-02-03T04:00:30;2.47;;;1.52;;
37051;SDS011;22964;52.272;13.356;2023-02-03T04:02:59;2.55;;;1.52;;
37051;SDS011;22964;52.272;13.356;2023-02-03T04:05:31;2.30;;;1.63;;
37051;SDS011;22964;52.272;13.356;2023-02-03T04:07:57;2.08;;;1.48;;
37051;SDS011;22964;52.272;13.356;2023-02-03T04:10:29;2.83;;;1.70;;
37051;SDS011;22964;52.272;13.356;2023-02-03T04:12:56;2.33;;;1.60;;
37051;SDS011;22964;52.272;13.356;2023-02-03T04:15:22;2.40;;;1.80;;
37051;SDS011;22964;52.272;13.356;2023-02-03T04:17:48;3.65;;;2.67;;
37051;SDS011;22964;52.272;13.356;2023-02-03T04:20:14;6.03;;;3.70;;
37051;SDS011;22964;52.272;13.356;2023-02-03T04:22:40;8.80;;;5.25;;
37051;SDS011;22964;52.272;13.356;2023-02-03T04:25:06;16.70;;;8.82;;
37051;SDS011;22964;52.272;13.356;2023-02-03T04:27:33;16.08;;;9.43;;
37051;SDS011;22964;52.272;13.356;2023-02-03T04:29:59;5.85;;;3.80;;
37051;SDS011;22964;52.272;13.356;2023-02-03T04:32:25;8.25;;;5.85;;
37051;SDS011;22964;52.272;13.356;2023-02-03T04:34:51;7.43;;;5.57;;
37051;SDS011;22964;52.272;13.356;2023-02-03T04:37:16;4.50;;;3.38;;
37051;SDS011;22964;52.272;13.356;2023-02-03T04:39:42;5.80;;;5.20;;
37051;SDS011;22964;52.272;13.356;2023-02-03T04:42:08;3.85;;;2.88;;
37051;SDS011;22964;52.272;13.356;2023-02-03T04:44:33;4.95;;;2.92;;
37051;SDS011;22964;52.272;13.356;2023-02-03T04:46:59;4.13;;;3.00;;
37051;SDS011;22964;52.272;13.356;2023-02-03T04:49:25;3.30;;;2.58;;
37051;SDS011;22964;52.272;13.356;2023-02-03T04:51:50;4.03;;;2.60;;
37051;SDS011;22964;52.272;13.356;2023-02-03T04:54:16;4.63;;;2.97;;
37051;SDS011;22964;52.272;13.356;2023-02-03T04:56:42;4.13;;;2.92;;
37051;SDS011;22964;52.272;13.356;2023-02-03T04:59:07;3.83;;;2.83;;
37051;SDS011;22964;52.272;13.356;2023-02-03T05:01:33;5.40;;;3.28;;
37051;SDS011;22964;52.272;13.356;2023-02-03T05:03:59;4.80;;;3.22;;
37051;SDS011;22964;52.272;13.356;2023-02-03T05:06:25;4.95;;;3.63;;
37051;SDS011;22964;52.272;13.356;2023-02-03T05:08:56;4.70;;;3.63;;
37051;SDS011;22964;52.272;13.356;2023-02-03T05:11:22;6.25;;;3.67;;
37051;SDS011;22964;52.272;13.356;2023-02-03T05:13:49;6.53;;;3.60;;
37051;SDS011;22964;52.272;13.356;2023-02-03T05:16:15;5.75;;;3.47;;
37051;SDS011;22964;52.272;13.356;2023-02-03T05:18:41;5.57;;;3.85;;
37051;SDS011;22964;52.272;13.356;2023-02-03T05:21:07;5.50;;;3.83;;
37051;SDS011;22964;52.272;13.356;2023-02-03T05:23:32;6.05;;;4.20;;
37051;SDS011;22964;52.272;13.356;2023-02-03T05:25:58;5.75;;;4.03;;
37051;SDS011;22964;52.272;13.356;2023-02-03T05:28:24;6.25;;;3.92;;
37051;SDS011;22964;52.272;13.356;2023-02-03T05:30:50;6.90;;;4.50;;
37051;SDS011;22964;52.272;13.356;2023-02-03T05:33:16;6.97;;;4.68;;
37051;SDS011;22964;52.272;13.356;2023-02-03T05:35:42;6.45;;;4.65;;
37051;SDS011;22964;52.272;13.356;2023-02-03T05:38:08;9.55;;;4.60;;
37051;SDS011;22964;52.272;13.356;2023-02-03T05:40:34;7.45;;;4.80;;
37051;SDS011;22964;52.272;13.356;2023-02-03T05:43:19;7.53;;;4.78;;
37051;SDS011;22964;52.272;13.356;2023-02-03T05:45:44;6.70;;;4.70;;
37051;SDS011;22964;52.272;13.356;2023-02-03T05:48:10;9.15;;;5.25;;
37051;SDS011;22964;52.272;13.356;2023-02-03T05:50:36;7.30;;;5.18;;
37051;SDS011;22964;52.272;13.356;2023-02-03T05:53:07;7.57;;;5.07;;
37051;SDS011;22964;52.272;13.356;2023-02-03T05:55:33;6.82;;;4.78;;
37051;SDS011;22964;52.272;13.356;2023-02-03T05:58:00;8.38;;;5.45;;
37051;SDS011;22964;52.272;13.356;2023-02-03T06:00:26;8.00;;;5.32;;
37051;SDS011;22964;52.272;13.356;2023-02-03T06:02:53;7.13;;;5.13;;
37051;SDS011;22964;52.272;13.356;2023-02-03T06:05:20;8.05;;;5.63;;
37051;SDS011;22964;52.272;13.356;2023-02-03T06:07:47;7.63;;;5.30;;
37051;SDS011;22964;52.272;13.356;2023-02-03T06:10:13;11.23;;;5.90;;
37051;SDS011;22964;52.272;13.356;2023-02-03T06:12:39;7.15;;;5.30;;
37051;SDS011;22964;52.272;13.356;2023-02-03T06:15:05;7.18;;;5.18;;
37051;SDS011;22964;52.272;13.356;2023-02-03T06:17:32;7.78;;;5.32;;
37051;SDS011;22964;52.272;13.356;2023-02-03T06:19:58;9.73;;;5.55;;
37051;SDS011;22964;52.272;13.356;2023-02-03T06:22:23;8.07;;;5.55;;
37051;SDS011;22964;52.272;13.356;2023-02-03T06:24:49;9.40;;;5.93;;
37051;SDS011;22964;52.272;13.356;2023-02-03T06:27:15;11.85;;;7.13;;
37051;SDS011;22964;52.272;13.356;2023-02-03T06:29:40;8.23;;;5.65;;
37051;SDS011;22964;52.272;13.356;2023-02-03T06:32:07;8.98;;;6.15;;
37051;SDS011;22964;52.272;13.356;2023-02-03T06:34:33;7.55;;;5.60;;
37051;SDS011;22964;52.272;13.356;2023-02-03T06:36:59;8.57;;;5.65;;
37051;SDS011;22964;52.272;13.356;2023-02-03T06:39:25;9.30;;;6.35;;
37051;SDS011;22964;52.272;13.356;2023-02-03T06:41:51;8.80;;;5.80;;
37051;SDS011;22964;52.272;13.356;2023-02-03T06:44:17;10.25;;;6.30;;
37051;SDS011;22964;52.272;13.356;2023-02-03T06:46:43;7.68;;;5.70;;
37051;SDS011;22964;52.272;13.356;2023-02-03T06:49:09;9.60;;;5.97;;
37051;SDS011;22964;52.272;13.356;2023-02-03T06:51:35;9.52;;;6.20;;
37051;SDS011;22964;52.272;13.356;2023-02-03T06:54:00;9.27;;;5.93;;
37051;SDS011;22964;52.272;13.356;2023-02-03T06:56:27;9.02;;;5.68;;
37051;SDS011;22964;52.272;13.356;2023-02-03T06:58:53;9.40;;;5.45;;
37051;SDS011;22964;52.272;13.356;2023-02-03T07:01:19;9.77;;;6.22;;
37051;SDS011;22964;52.272;13.356;2023-02-03T07:03:45;7.80;;;5.72;;
37051;SDS011;22964;52.272;13.356;2023-02-03T07:06:12;10.38;;;5.90;;
37051;SDS011;22964;52.272;13.356;2023-02-03T07:08:38;8.73;;;5.82;;
37051;SDS011;22964;52.272;13.356;2023-02-03T07:11:04;10.85;;;6.20;;
37051;SDS011;22964;52.272;13.356;2023-02-03T07:13:30;8.02;;;5.60;;
37051;SDS011;22964;52.272;13.356;2023-02-03T07:15:56;9.00;;;5.90;;
37051;SDS011;22964;52.272;13.356;2023-02-03T07:18:21;9.70;;;5.78;;
37051;SDS011;22964;52.272;13.356;2023-02-03T07:20:49;8.90;;;5.57;;
37051;SDS011;22964;52.272;13.356;2023-02-03T07:23:15;8.48;;;5.75;;
37051;SDS011;22964;52.272;13.356;2023-02-03T07:25:41;9.73;;;6.00;;
37051;SDS011;22964;52.272;13.356;2023-02-03T07:28:07;8.70;;;5.93;;
37051;SDS011;22964;52.272;13.356;2023-02-03T07:30:33;9.43;;;5.68;;
37051;SDS011;22964;52.272;13.356;2023-02-03T07:32:58;9.80;;;5.30;;
37051;SDS011;22964;52.272;13.356;2023-02-03T07:35:24;8.10;;;4.95;;
37051;SDS011;22964;52.272;13.356;2023-02-03T07:37:51;9.25;;;5.28;;
37051;SDS011;22964;52.272;13.356;2023-02-03T07:40:17;11.07;;;5.55;;
37051;SDS011;22964;52.272;13.356;2023-02-03T07:42:44;8.77;;;5.53;;
37051;SDS011;22964;52.272;13.356;2023-02-03T07:45:12;9.95;;;5.80;;
37051;SDS011;22964;52.272;13.356;2023-02-03T07:47:40;8.10;;;5.60;;
37051;SDS011;22964;52.272;13.356;2023-02-03T07:50:09;10.65;;;5.57;;
37051;SDS011;22964;52.272;13.356;2023-02-03T07:52:35;8.32;;;5.10;;
37051;SDS011;22964;52.272;13.356;2023-02-03T07:55:01;7.65;;;5.03;;
37051;SDS011;22964;52.272;13.356;2023-02-03T07:57:28;7.43;;;4.38;;
37051;SDS011;22964;52.272;13.356;2023-02-03T07:59:53;6.65;;;4.40;;
37051;SDS011;22964;52.272;13.356;2023-02-03T08:02:19;8.52;;;4.47;;
37051;SDS011;22964;52.272;13.356;2023-02-03T08:04:45;7.30;;;4.55;;
37051;SDS011;22964;52.272;13.356;2023-02-03T08:07:10;6.80;;;4.25;;
37051;SDS011;22964;52.272;13.356;2023-02-03T08:09:36;7.80;;;4.55;;
37051;SDS011;22964;52.272;13.356;2023-02-03T08:12:02;7.55;;;4.90;;
37051;SDS011;22964;52.272;13.356;2023-02-03T08:14:28;7.68;;;4.93;;
37051;SDS011;22964;52.272;13.356;2023-02-03T08:16:55;7.18;;;4.53;;
37051;SDS011;22964;52.272;13.356;2023-02-03T08:19:21;7.20;;;4.20;;
37051;SDS011;22964;52.272;13.356;2023-02-03T08:21:46;6.78;;;4.72;;
37051;SDS011;22964;52.272;13.356;2023-02-03T08:24:12;6.28;;;4.30;;
37051;SDS011;22964;52.272;13.356;2023-02-03T08:26:38;7.18;;;4.38;;
37051;SDS011;22964;52.272;13.356;2023-02-03T08:29:04;6.18;;;4.18;;
37051;SDS011;22964;52.272;13.356;2023-02-03T08:31:29;5.93;;;4.00;;
37051;SDS011;22964;52.272;13.356;2023-02-03T08:33:55;5.50;;;4.03;;
37051;SDS011;22964;52.272;13.356;2023-02-03T08:36:22;5.28;;;3.50;;
37051;SDS011;22964;52.272;13.356;2023-02-03T08:38:47;4.82;;;3.60;;
37051;SDS011;22964;52.272;13.356;2023-02-03T08:41:14;7.22;;;3.90;;
37051;SDS011;22964;52.272;13.356;2023-02-03T08:43:42;4.70;;;3.80;;
37051;SDS011;22964;52.272;13.356;2023-02-03T08:46:09;5.13;;;3.78;;
37051;SDS011;22964;52.272;13.356;2023-02-03T08:48:36;4.43;;;3.42;;
37051;SDS011;22964;52.272;13.356;2023-02-03T08:51:12;6.35;;;3.58;;
37051;SDS011;22964;52.272;13.356;2023-02-03T08:53:40;5.43;;;3.60;;
37051;SDS011;22964;52.272;13.356;2023-02-03T08:56:07;5.00;;;3.50;;
37051;SDS011;22964;52.272;13.356;2023-02-03T08:58:34;5.70;;;3.55;;
37051;SDS011;22964;52.272;13.356;2023-02-03T09:01:07;4.18;;;3.33;;
37051;SDS011;22964;52.272;13.356;2023-02-03T09:03:34;6.57;;;3.75;;
37051;SDS011;22964;52.272;13.356;2023-02-03T09:06:01;6.93;;;4.00;;
37051;SDS011;22964;52.272;13.356;2023-02-03T09:08:28;6.53;;;3.88;;
37051;SDS011;22964;52.272;13.356;2023-02-03T09:10:54;5.97;;;3.58;;
37051;SDS011;22964;52.272;13.356;2023-02-03T09:13:20;6.18;;;3.40;;
37051;SDS011;22964;52.272;13.356;2023-02-03T09:15:47;5.13;;;3.45;;
37051;SDS011;22964;52.272;13.356;2023-02-03T09:18:12;5.10;;;3.30;;
37051;SDS011;22964;52.272;13.356;2023-02-03T09:20:38;5.90;;;3.50;;
37051;SDS011;22964;52.272;13.356;2023-02-03T09:23:04;4.28;;;2.70;;
37051;SDS011;22964;52.272;13.356;2023-02-03T09:25:30;4.30;;;2.80;;
37051;SDS011;22964;52.272;13.356;2023-02-03T09:27:57;5.53;;;2.70;;
37051;SDS011;22964;52.272;13.356;2023-02-03T09:30:25;4.53;;;2.70;;
37051;SDS011;22964;52.272;13.356;2023-02-03T09:32:51;4.05;;;2.50;;
37051;SDS011;22964;52.272;13.356;2023-02-03T09:35:19;5.88;;;2.60;;
37051;SDS011;22964;52.272;13.356;2023-02-03T09:37:45;4.53;;;2.60;;
37051;SDS011;22964;52.272;13.356;2023-02-03T09:40:16;4.38;;;2.40;;
37051;SDS011;22964;52.272;13.356;2023-02-03T09:45:23;4.05;;;2.15;;
37051;SDS011;22964;52.272;13.356;2023-02-03T09:47:52;3.25;;;2.10;;
37051;SDS011;22964;52.272;13.356;2023-02-03T09:50:22;3.90;;;2.28;;
37051;SDS011;22964;52.272;13.356;2023-02-03T09:52:50;3.92;;;2.50;;
37051;SDS011;22964;52.272;13.356;2023-02-03T09:55:19;3.90;;;2.22;;
37051;SDS011;22964;52.272;13.356;2023-02-03T09:58:05;3.00;;;1.90;;
37051;SDS011;22964;52.272;13.356;2023-02-03T10:00:43;3.83;;;2.00;;
37051;SDS011;22964;52.272;13.356;2023-02-03T10:06:20;3.17;;;2.00;;
37051;SDS011;22964;52.272;13.356;2023-02-03T10:09:18;2.97;;;2.00;;
37051;SDS011;22964;52.272;13.356;2023-02-03T10:17:26;2.60;;;1.60;;
37051;SDS011;22964;52.272;13.356;2023-02-03T10:22:39;3.13;;;1.60;;
37051;SDS011;22964;52.272;13.356;2023-02-03T10:25:19;4.32;;;1.75;;
37051;SDS011;22964;52.272;13.356;2023-02-03T10:27:50;1.98;;;1.38;;
37051;SDS011;22964;52.272;13.356;2023-02-03T10:30:21;2.88;;;1.33;;
37051;SDS011;22964;52.272;13.356;2023-02-03T10:33:10;2.97;;;1.50;;
37051;SDS011;22964;52.272;13.356;2023-02-03T10:35:45;2.22;;;1.60;;
37051;SDS011;22964;52.272;13.356;2023-02-03T10:38:18;2.70;;;1.60;;
37051;SDS011;22964;52.272;13.356;2023-02-03T10:40:58;2.85;;;1.40;;
37051;SDS011;22964;52.272;13.356;2023-02-03T10:43:25;3.05;;;1.45;;
37051;SDS011;22964;52.272;13.356;2023-02-03T10:46:12;3.13;;;1.40;;
37051;SDS011;22964;52.272;13.356;2023-02-03T10:48:39;1.70;;;1.33;;
37051;SDS011;22964;52.272;13.356;2023-02-03T10:51:08;2.85;;;1.52;;
37051;SDS011;22964;52.272;13.356;2023-02-03T10:53:43;1.77;;;1.30;;
37051;SDS011;22964;52.272;13.356;2023-02-03T10:56:12;3.00;;;1.40;;
37051;SDS011;22964;52.272;13.356;2023-02-03T10:58:45;2.25;;;1.50;;
37051;SDS011;22964;52.272;13.356;2023-02-03T11:01:17;3.25;;;1.30;;
37051;SDS011;22964;52.272;13.356;2023-02-03T11:04:01;2.20;;;1.40;;
37051;SDS011;22964;52.272;13.356;2023-02-03T11:06:29;1.90;;;1.30;;
37051;SDS011;22964;52.272;13.356;2023-02-03T11:08:56;3.65;;;1.60;;
37051;SDS011;22964;52.272;13.356;2023-02-03T11:11:28;2.83;;;1.50;;
37051;SDS011;22964;52.272;13.356;2023-02-03T11:16:28;1.93;;;0.77;;
37051;SDS011;22964;52.272;13.356;2023-02-03T11:19:02;5.95;;;1.20;;
37051;SDS011;22964;52.272;13.356;2023-02-03T11:21:42;6.68;;;1.35;;
37051;SDS011;22964;52.272;13.356;2023-02-03T11:26:47;7.38;;;1.55;;
37051;SDS011;22964;52.272;13.356;2023-02-03T11:32:02;5.95;;;1.60;;
37051;SDS011;22964;52.272;13.356;2023-02-03T11:34:35;8.05;;;1.48;;
37051;SDS011;22964;52.272;13.356;2023-02-03T11:37:22;12.20;;;3.20;;
37051;SDS011;22964;52.272;13.356;2023-02-03T11:42:31;5.93;;;1.83;;
37051;SDS011;22964;52.272;13.356;2023-02-03T11:45:16;8.43;;;1.85;;
37051;SDS011;22964;52.272;13.356;2023-02-03T11:47:51;7.95;;;1.50;;
37051;SDS011;22964;52.272;13.356;2023-02-03T12:06:45;12.73;;;2.43;;
37051;SDS011;22964;52.272;13.356;2023-02-03T12:09:32;12.05;;;2.58;;
37051;SDS011;22964;52.272;13.356;2023-02-03T12:15:27;15.27;;;2.58;;
37051;SDS011;22964;52.272;13.356;2023-02-03T12:33:55;14.65;;;2.35;;
37051;SDS011;22964;52.272;13.356;2023-02-03T12:36:39;14.98;;;2.90;;
37051;SDS011;22964;52.272;13.356;2023-02-03T12:39:19;15.20;;;2.30;;
37051;SDS011;22964;52.272;13.356;2023-02-03T12:41:58;18.23;;;2.80;;
37051;SDS011;22964;52.272;13.356;2023-02-03T12:45:28;14.52;;;2.85;;
37051;SDS011;22964;52.272;13.356;2023-02-03T12:47:33;13.25;;;2.58;;
37051;SDS011;22964;52.272;13.356;2023-02-03T12:52:57;15.70;;;2.63;;
37051;SDS011;22964;52.272;13.356;2023-02-03T12:55:51;14.65;;;2.70;;
37051;SDS011;22964;52.272;13.356;2023-02-03T13:01:25;12.20;;;2.42;;
37051;SDS011;22964;52.272;13.356;2023-02-03T13:04:05;14.77;;;2.85;;
37051;SDS011;22964;52.272;13.356;2023-02-03T13:12:24;17.98;;;3.33;;
37051;SDS011;22964;52.272;13.356;2023-02-03T13:14:56;15.20;;;2.58;;
37051;SDS011;22964;52.272;13.356;2023-02-03T13:17:24;21.48;;;3.60;;
37051;SDS011;22964;52.272;13.356;2023-02-03T13:20:32;14.02;;;2.75;;
37051;SDS011;22964;52.272;13.356;2023-02-03T13:22:55;14.15;;;2.88;;
37051;SDS011;22964;52.272;13.356;2023-02-03T13:31:36;9.43;;;1.60;;
37051;SDS011;22964;52.272;13.356;2023-02-03T13:36:49;10.32;;;3.58;;
37051;SDS011;22964;52.272;13.356;2023-02-03T13:45:04;11.25;;;3.40;;
37051;SDS011;22964;52.272;13.356;2023-02-03T13:47:43;18.73;;;4.90;;
37051;SDS011;22964;52.272;13.356;2023-02-03T13:50:26;15.05;;;3.40;;
37051;SDS011;22964;52.272;13.356;2023-02-03T13:53:36;27.95;;;7.85;;
37051;SDS011;22964;52.272;13.356;2023-02-03T13:58:30;23.58;;;7.72;;
37051;SDS011;22964;52.272;13.356;2023-02-03T14:01:03;12.60;;;3.50;;
37051;SDS011;22964;52.272;13.356;2023-02-03T14:05:55;12.73;;;3.05;;
37051;SDS011;22964;52.272;13.356;2023-02-03T14:19:02;11.15;;;1.77;;
37051;SDS011;22964;52.272;13.356;2023-02-03T14:24:09;12.20;;;2.58;;
37051;SDS011;22964;52.272;13.356;2023-02-03T14:29:05;14.07;;;2.55;;
37051;SDS011;22964;52.272;13.356;2023-02-03T14:31:52;12.82;;;2.40;;
37051;SDS011;22964;52.272;13.356;2023-02-03T14:34:36;16.35;;;3.03;;
37051;SDS011;22964;52.272;13.356;2023-02-03T14:37:20;19.23;;;2.80;;
37051;SDS011;22964;52.272;13.356;2023-02-03T14:48:10;24.63;;;3.70;;
37051;SDS011;22964;52.272;13.356;2023-02-03T14:53:52;17.25;;;2.90;;
37051;SDS011;22964;52.272;13.356;2023-02-03T14:56:30;16.08;;;2.72;;
37051;SDS011;22964;52.272;13.356;2023-02-03T15:05:53;15.77;;;3.08;;
37051;SDS011;22964;52.272;13.356;2023-02-03T15:08:46;17.85;;;2.95;;
37051;SDS011;22964;52.272;13.356;2023-02-03T15:11:29;20.45;;;3.20;;
37051;SDS011;22964;52.272;13.356;2023-02-03T15:14:12;15.77;;;2.78;;
37051;SDS011;22964;52.272;13.356;2023-02-03T15:19:21;19.15;;;3.17;;
37051;SDS011;22964;52.272;13.356;2023-02-03T15:21:48;20.88;;;2.90;;
37051;SDS011;22964;52.272;13.356;2023-02-03T15:24:15;18.00;;;3.20;;
37051;SDS011;22964;52.272;13.356;2023-02-03T15:26:45;19.08;;;3.13;;
37051;SDS011;22964;52.272;13.356;2023-02-03T15:29:20;22.50;;;3.83;;
37051;SDS011;22964;52.272;13.356;2023-02-03T15:31:58;14.48;;;2.85;;
37051;SDS011;22964;52.272;13.356;2023-02-03T15:34:37;14.23;;;3.22;;
37051;SDS011;22964;52.272;13.356;2023-02-03T15:37:13;17.77;;;3.97;;
37051;SDS011;22964;52.272;13.356;2023-02-03T15:39:55;17.85;;;2.83;;
37051;SDS011;22964;52.272;13.356;2023-02-03T15:45:28;17.13;;;3.05;;
37051;SDS011;22964;52.272;13.356;2023-02-03T15:48:01;19.60;;;3.00;;
37051;SDS011;22964;52.272;13.356;2023-02-03T15:50:40;16.65;;;3.70;;
37051;SDS011;22964;52.272;13.356;2023-02-03T15:55:46;16.52;;;3.38;;
37051;SDS011;22964;52.272;13.356;2023-02-03T15:58:19;16.83;;;2.92;;
37051;SDS011;22964;52.272;13.356;2023-02-03T16:00:52;12.77;;;2.78;;
37051;SDS011;22964;52.272;13.356;2023-02-03T16:03:21;14.25;;;2.55;;
37051;SDS011;22964;52.272;13.356;2023-02-03T16:06:17;12.45;;;2.80;;
37051;SDS011;22964;52.272;13.356;2023-02-03T16:08:59;16.25;;;4.38;;
37051;SDS011;22964;52.272;13.356;2023-02-03T16:14:05;18.92;;;3.40;;
37051;SDS011;22964;52.272;13.356;2023-02-03T16:16:41;14.25;;;2.63;;
37051;SDS011;22964;52.272;13.356;2023-02-03T16:19:16;13.68;;;2.70;;
37051;SDS011;22964;52.272;13.356;2023-02-03T16:27:21;14.65;;;3.03;;
37051;SDS011;22964;52.272;13.356;2023-02-03T16:35:52;15.05;;;2.72;;
37051;SDS011;22964;52.272;13.356;2023-02-03T16:38:48;14.90;;;2.67;;
37051;SDS011;22964;52.272;13.356;2023-02-03T16:41:33;15.70;;;2.80;;
37051;SDS011;22964;52.272;13.356;2023-02-03T16:44:19;15.48;;;3.03;;
37051;SDS011;22964;52.272;13.356;2023-02-03T16:47:09;15.88;;;2.70;;
37051;SDS011;22964;52.272;13.356;2023-02-03T16:52:54;16.98;;;2.38;;
37051;SDS011;22964;52.272;13.356;2023-02-03T16:55:20;9.57;;;2.53;;
37051;SDS011;22964;52.272;13.356;2023-02-03T16:57:46;11.50;;;2.55;;
37051;SDS011;22964;52.272;13.356;2023-02-03T17:00:12;17.45;;;3.15;;
37051;SDS011;22964;52.272;13.356;2023-02-03T17:02:38;20.98;;;3.58;;
37051;SDS011;22964;52.272;13.356;2023-02-03T17:05:03;15.50;;;3.13;;
37051;SDS011;22964;52.272;13.356;2023-02-03T17:07:29;21.67;;;3.75;;
37051;SDS011;22964;52.272;13.356;2023-02-03T17:09:55;14.57;;;3.03;;
37051;SDS011;22964;52.272;13.356;2023-02-03T17:12:20;14.48;;;2.58;;
37051;SDS011;22964;52.272;13.356;2023-02-03T17:14:46;13.13;;;2.50;;
37051;SDS011;22964;52.272;13.356;2023-02-03T17:17:12;14.05;;;2.75;;
37051;SDS011;22964;52.272;13.356;2023-02-03T17:19:37;15.75;;;2.60;;
37051;SDS011;22964;52.272;13.356;2023-02-03T17:22:03;15.18;;;3.30;;
37051;SDS011;22964;52.272;13.356;2023-02-03T17:24:29;18.33;;;3.20;;
37051;SDS011;22964;52.272;13.356;2023-02-03T17:26:55;15.30;;;2.95;;
37051;SDS011;22964;52.272;13.356;2023-02-03T17:29:21;12.10;;;2.50;;
37051;SDS011;22964;52.272;13.356;2023-02-03T17:31:47;18.40;;;3.40;;
37051;SDS011;22964;52.272;13.356;2023-02-03T17:34:13;14.80;;;2.55;;
37051;SDS011;22964;52.272;13.356;2023-02-03T17:36:39;12.55;;;2.35;;
37051;SDS011;22964;52.272;13.356;2023-02-03T17:39:04;15.43;;;2.75;;
37051;SDS011;22964;52.272;13.356;2023-02-03T17:41:30;17.80;;;3.00;;
37051;SDS011;22964;52.272;13.356;2023-02-03T17:43:57;14.77;;;2.65;;